Leesburg, Kentucky
Current Conditions -  °F | °C
As of 4:55 PM on Tuesday 25 Nov 2014 (Local Time) from KIOB Reporting Station
Clear Clear  
Wind Chill: 42°   Ceiling: Unl
Heat Index: 45°   Visibility: 10mi
Dew Point: 30°   Wind: 5mph
Humidity: 57%   Direction: 310°NW
Pressure: 30.12"   Gusts: NA
Location:  38.4145°N, 84.2859°W
Report Text: KIOB 252155Z AUTO 31004KT 10SM CLR 07/M01 A3012 RMK AO2
Loading
Personal Weather Stations






























Interactive Weather Map New forecast layout! Learn more

10-Day Weather Forecast

Advertisements
Track Severe Weather on mobile